sensor_id;sensor_type;location;lat;lon;timestamp;P1;durP1;ratioP1;P2;durP2;ratioP2
64791;SDS011;51226;47.504;19.074;2023-01-29T00:02:45;38.42;;;22.85;;
64791;SDS011;51226;47.504;19.074;2023-01-29T00:05:48;35.97;;;22.48;;
64791;SDS011;51226;47.504;19.074;2023-01-29T00:08:51;36.13;;;22.77;;
64791;SDS011;51226;47.504;19.074;2023-01-29T00:11:54;33.40;;;20.12;;
64791;SDS011;51226;47.504;19.074;2023-01-29T00:14:56;41.43;;;22.60;;
64791;SDS011;51226;47.504;19.074;2023-01-29T00:18:00;40.10;;;22.73;;
64791;SDS011;51226;47.504;19.074;2023-01-29T00:21:02;39.65;;;23.52;;
64791;SDS011;51226;47.504;19.074;2023-01-29T00:24:06;35.78;;;21.23;;
64791;SDS011;51226;47.504;19.074;2023-01-29T00:27:08;40.88;;;23.50;;
64791;SDS011;51226;47.504;19.074;2023-01-29T00:30:12;36.17;;;21.67;;
64791;SDS011;51226;47.504;19.074;2023-01-29T00:33:20;39.72;;;22.73;;
64791;SDS011;51226;47.504;19.074;2023-01-29T00:36:24;39.47;;;22.70;;
64791;SDS011;51226;47.504;19.074;2023-01-29T00:39:27;36.85;;;23.20;;
64791;SDS011;51226;47.504;19.074;2023-01-29T00:42:49;38.55;;;23.23;;
64791;SDS011;51226;47.504;19.074;2023-01-29T00:46:12;37.17;;;21.92;;
64791;SDS011;51226;47.504;19.074;2023-01-29T00:49:16;41.22;;;22.62;;
64791;SDS011;51226;47.504;19.074;2023-01-29T00:52:18;39.57;;;22.57;;
64791;SDS011;51226;47.504;19.074;2023-01-29T00:55:28;39.72;;;23.25;;
64791;SDS011;51226;47.504;19.074;2023-01-29T00:58:30;34.35;;;21.58;;
64791;SDS011;51226;47.504;19.074;2023-01-29T01:01:36;32.58;;;21.60;;
64791;SDS011;51226;47.504;19.074;2023-01-29T01:04:57;39.58;;;23.55;;
64791;SDS011;51226;47.504;19.074;2023-01-29T01:08:00;39.58;;;23.60;;
64791;SDS011;51226;47.504;19.074;2023-01-29T01:11:04;36.87;;;21.83;;
64791;SDS011;51226;47.504;19.074;2023-01-29T01:14:08;39.70;;;23.12;;
64791;SDS011;51226;47.504;19.074;2023-01-29T01:17:11;41.00;;;22.47;;
64791;SDS011;51226;47.504;19.074;2023-01-29T01:20:14;33.38;;;20.67;;
64791;SDS011;51226;47.504;19.074;2023-01-29T01:26:21;42.35;;;21.55;;
64791;SDS011;51226;47.504;19.074;2023-01-29T01:29:24;33.78;;;19.90;;
64791;SDS011;51226;47.504;19.074;2023-01-29T01:32:27;37.05;;;21.58;;
64791;SDS011;51226;47.504;19.074;2023-01-29T01:35:29;38.92;;;22.70;;
64791;SDS011;51226;47.504;19.074;2023-01-29T01:38:32;36.88;;;22.37;;
64791;SDS011;51226;47.504;19.074;2023-01-29T01:41:35;37.00;;;22.23;;
64791;SDS011;51226;47.504;19.074;2023-01-29T01:48:14;35.58;;;19.92;;
64791;SDS011;51226;47.504;19.074;2023-01-29T01:51:22;36.53;;;21.10;;
64791;SDS011;51226;47.504;19.074;2023-01-29T01:54:27;31.98;;;20.33;;
64791;SDS011;51226;47.504;19.074;2023-01-29T01:57:34;38.10;;;23.23;;
64791;SDS011;51226;47.504;19.074;2023-01-29T02:03:48;34.15;;;19.30;;
64791;SDS011;51226;47.504;19.074;2023-01-29T02:07:13;39.60;;;22.10;;
64791;SDS011;51226;47.504;19.074;2023-01-29T02:10:43;36.92;;;20.65;;
64791;SDS011;51226;47.504;19.074;2023-01-29T02:13:48;41.50;;;22.80;;
64791;SDS011;51226;47.504;19.074;2023-01-29T02:17:00;35.03;;;20.48;;
64791;SDS011;51226;47.504;19.074;2023-01-29T02:23:22;36.08;;;20.50;;
64791;SDS011;51226;47.504;19.074;2023-01-29T02:33:04;32.78;;;20.23;;
64791;SDS011;51226;47.504;19.074;2023-01-29T02:42:56;36.75;;;21.12;;
64791;SDS011;51226;47.504;19.074;2023-01-29T02:46:13;37.75;;;21.50;;
64791;SDS011;51226;47.504;19.074;2023-01-29T02:49:33;34.08;;;19.90;;
64791;SDS011;51226;47.504;19.074;2023-01-29T02:52:39;39.92;;;22.25;;
64791;SDS011;51226;47.504;19.074;2023-01-29T02:55:59;32.95;;;19.42;;
64791;SDS011;51226;47.504;19.074;2023-01-29T02:59:12;37.50;;;19.90;;
64791;SDS011;51226;47.504;19.074;2023-01-29T03:02:20;35.45;;;20.65;;
64791;SDS011;51226;47.504;19.074;2023-01-29T03:05:42;36.25;;;20.10;;
64791;SDS011;51226;47.504;19.074;2023-01-29T03:09:40;36.30;;;22.50;;
64791;SDS011;51226;47.504;19.074;2023-01-29T03:12:34;39.63;;;21.23;;
64791;SDS011;51226;47.504;19.074;2023-01-29T03:15:43;33.00;;;19.48;;
64791;SDS011;51226;47.504;19.074;2023-01-29T03:18:58;38.92;;;20.08;;
64791;SDS011;51226;47.504;19.074;2023-01-29T03:22:06;35.97;;;19.80;;
64791;SDS011;51226;47.504;19.074;2023-01-29T03:25:12;36.67;;;21.20;;
64791;SDS011;51226;47.504;19.074;2023-01-29T03:28:35;34.72;;;18.58;;
64791;SDS011;51226;47.504;19.074;2023-01-29T03:32:00;35.10;;;20.35;;
64791;SDS011;51226;47.504;19.074;2023-01-29T03:35:11;33.65;;;20.45;;
64791;SDS011;51226;47.504;19.074;2023-01-29T03:38:22;34.92;;;20.48;;
64791;SDS011;51226;47.504;19.074;2023-01-29T03:41:32;35.42;;;19.67;;
64791;SDS011;51226;47.504;19.074;2023-01-29T03:51:21;33.63;;;19.35;;
64791;SDS011;51226;47.504;19.074;2023-01-29T03:54:38;33.22;;;18.87;;
64791;SDS011;51226;47.504;19.074;2023-01-29T03:57:55;31.48;;;18.00;;
64791;SDS011;51226;47.504;19.074;2023-01-29T04:01:17;32.83;;;18.60;;
64791;SDS011;51226;47.504;19.074;2023-01-29T04:04:34;32.70;;;19.58;;
64791;SDS011;51226;47.504;19.074;2023-01-29T04:07:39;33.35;;;19.15;;
64791;SDS011;51226;47.504;19.074;2023-01-29T04:10:45;33.88;;;18.85;;
64791;SDS011;51226;47.504;19.074;2023-01-29T04:13:50;29.52;;;19.17;;
64791;SDS011;51226;47.504;19.074;2023-01-29T04:16:54;29.75;;;18.33;;
64791;SDS011;51226;47.504;19.074;2023-01-29T04:20:03;33.45;;;19.15;;
64791;SDS011;51226;47.504;19.074;2023-01-29T04:23:17;34.50;;;18.50;;
64791;SDS011;51226;47.504;19.074;2023-01-29T04:29:52;33.45;;;19.40;;
64791;SDS011;51226;47.504;19.074;2023-01-29T04:33:09;27.62;;;18.50;;
64791;SDS011;51226;47.504;19.074;2023-01-29T04:43:19;27.50;;;16.37;;
64791;SDS011;51226;47.504;19.074;2023-01-29T04:46:49;27.02;;;16.37;;
64791;SDS011;51226;47.504;19.074;2023-01-29T04:50:12;35.20;;;19.75;;
64791;SDS011;51226;47.504;19.074;2023-01-29T04:53:36;29.15;;;18.02;;
64791;SDS011;51226;47.504;19.074;2023-01-29T05:00:17;27.95;;;18.15;;
64791;SDS011;51226;47.504;19.074;2023-01-29T05:03:24;27.62;;;17.15;;
64791;SDS011;51226;47.504;19.074;2023-01-29T05:06:28;28.17;;;16.42;;
64791;SDS011;51226;47.504;19.074;2023-01-29T05:09:33;26.40;;;15.52;;
64791;SDS011;51226;47.504;19.074;2023-01-29T05:12:38;27.13;;;15.00;;
64791;SDS011;51226;47.504;19.074;2023-01-29T05:15:49;28.87;;;15.70;;
64791;SDS011;51226;47.504;19.074;2023-01-29T05:19:00;26.67;;;13.73;;
64791;SDS011;51226;47.504;19.074;2023-01-29T05:22:03;23.17;;;13.75;;
64791;SDS011;51226;47.504;19.074;2023-01-29T05:25:23;22.40;;;13.07;;
64791;SDS011;51226;47.504;19.074;2023-01-29T05:31:34;21.65;;;12.48;;
64791;SDS011;51226;47.504;19.074;2023-01-29T05:34:37;24.40;;;14.30;;
64791;SDS011;51226;47.504;19.074;2023-01-29T05:37:39;22.62;;;14.70;;
64791;SDS011;51226;47.504;19.074;2023-01-29T05:40:43;23.77;;;13.90;;
64791;SDS011;51226;47.504;19.074;2023-01-29T05:43:46;22.92;;;12.95;;
64791;SDS011;51226;47.504;19.074;2023-01-29T05:46:49;25.08;;;14.38;;
64791;SDS011;51226;47.504;19.074;2023-01-29T05:49:53;22.67;;;14.57;;
64791;SDS011;51226;47.504;19.074;2023-01-29T05:52:57;23.10;;;14.13;;
64791;SDS011;51226;47.504;19.074;2023-01-29T05:56:01;25.48;;;15.30;;
64791;SDS011;51226;47.504;19.074;2023-01-29T05:59:04;24.73;;;13.27;;
64791;SDS011;51226;47.504;19.074;2023-01-29T06:02:08;23.30;;;14.65;;
64791;SDS011;51226;47.504;19.074;2023-01-29T06:05:11;22.67;;;13.57;;
64791;SDS011;51226;47.504;19.074;2023-01-29T06:08:15;23.42;;;12.52;;
64791;SDS011;51226;47.504;19.074;2023-01-29T06:11:18;25.88;;;13.68;;
64791;SDS011;51226;47.504;19.074;2023-01-29T06:14:21;24.48;;;13.60;;
64791;SDS011;51226;47.504;19.074;2023-01-29T06:17:24;21.67;;;13.23;;
64791;SDS011;51226;47.504;19.074;2023-01-29T06:20:27;23.15;;;13.65;;
64791;SDS011;51226;47.504;19.074;2023-01-29T06:23:30;21.70;;;13.52;;
64791;SDS011;51226;47.504;19.074;2023-01-29T06:26:33;22.90;;;13.70;;
64791;SDS011;51226;47.504;19.074;2023-01-29T06:29:36;21.70;;;13.02;;
64791;SDS011;51226;47.504;19.074;2023-01-29T06:32:39;21.17;;;13.27;;
64791;SDS011;51226;47.504;19.074;2023-01-29T06:35:42;24.48;;;14.02;;
64791;SDS011;51226;47.504;19.074;2023-01-29T06:38:45;21.17;;;12.68;;
64791;SDS011;51226;47.504;19.074;2023-01-29T06:41:48;19.75;;;13.50;;
64791;SDS011;51226;47.504;19.074;2023-01-29T06:44:51;22.10;;;14.00;;
64791;SDS011;51226;47.504;19.074;2023-01-29T06:47:54;20.52;;;13.13;;
64791;SDS011;51226;47.504;19.074;2023-01-29T06:51:05;23.12;;;13.18;;
64791;SDS011;51226;47.504;19.074;2023-01-29T06:54:09;21.92;;;12.98;;
64791;SDS011;51226;47.504;19.074;2023-01-29T07:00:15;19.05;;;12.43;;
64791;SDS011;51226;47.504;19.074;2023-01-29T07:03:19;21.42;;;13.15;;
64791;SDS011;51226;47.504;19.074;2023-01-29T07:06:25;20.35;;;12.73;;
64791;SDS011;51226;47.504;19.074;2023-01-29T07:09:29;21.80;;;14.20;;
64791;SDS011;51226;47.504;19.074;2023-01-29T07:12:32;16.12;;;11.43;;
64791;SDS011;51226;47.504;19.074;2023-01-29T07:15:35;20.20;;;12.63;;
64791;SDS011;51226;47.504;19.074;2023-01-29T07:18:38;20.12;;;12.80;;
64791;SDS011;51226;47.504;19.074;2023-01-29T07:21:41;19.12;;;12.75;;
64791;SDS011;51226;47.504;19.074;2023-01-29T07:24:44;23.50;;;13.23;;
64791;SDS011;51226;47.504;19.074;2023-01-29T07:27:47;18.50;;;12.00;;
64791;SDS011;51226;47.504;19.074;2023-01-29T07:30:54;18.65;;;12.75;;
64791;SDS011;51226;47.504;19.074;2023-01-29T07:34:00;31.85;;;18.95;;
64791;SDS011;51226;47.504;19.074;2023-01-29T07:37:03;22.73;;;14.27;;
64791;SDS011;51226;47.504;19.074;2023-01-29T07:40:07;18.85;;;13.07;;
64791;SDS011;51226;47.504;19.074;2023-01-29T07:43:15;16.20;;;11.80;;
64791;SDS011;51226;47.504;19.074;2023-01-29T07:46:18;17.15;;;12.30;;
64791;SDS011;51226;47.504;19.074;2023-01-29T07:49:21;19.12;;;12.55;;
64791;SDS011;51226;47.504;19.074;2023-01-29T07:52:24;18.77;;;13.18;;
64791;SDS011;51226;47.504;19.074;2023-01-29T07:55:27;20.25;;;13.27;;
64791;SDS011;51226;47.504;19.074;2023-01-29T07:58:30;19.08;;;12.60;;
64791;SDS011;51226;47.504;19.074;2023-01-29T08:01:32;24.20;;;14.80;;
64791;SDS011;51226;47.504;19.074;2023-01-29T08:04:36;18.77;;;12.27;;
64791;SDS011;51226;47.504;19.074;2023-01-29T08:07:38;20.60;;;12.83;;
64791;SDS011;51226;47.504;19.074;2023-01-29T08:10:41;18.67;;;11.90;;
64791;SDS011;51226;47.504;19.074;2023-01-29T08:13:44;17.77;;;12.27;;
64791;SDS011;51226;47.504;19.074;2023-01-29T08:16:48;18.52;;;11.52;;
64791;SDS011;51226;47.504;19.074;2023-01-29T08:19:51;17.77;;;11.05;;
64791;SDS011;51226;47.504;19.074;2023-01-29T08:23:01;17.58;;;11.50;;
64791;SDS011;51226;47.504;19.074;2023-01-29T08:26:06;14.82;;;10.88;;
64791;SDS011;51226;47.504;19.074;2023-01-29T08:29:10;17.08;;;11.35;;
64791;SDS011;51226;47.504;19.074;2023-01-29T08:32:13;16.30;;;11.10;;
64791;SDS011;51226;47.504;19.074;2023-01-29T08:35:16;18.02;;;11.07;;
64791;SDS011;51226;47.504;19.074;2023-01-29T08:38:19;17.17;;;11.68;;
64791;SDS011;51226;47.504;19.074;2023-01-29T08:41:23;16.75;;;11.23;;
64791;SDS011;51226;47.504;19.074;2023-01-29T08:44:25;16.53;;;11.17;;
64791;SDS011;51226;47.504;19.074;2023-01-29T08:47:29;25.55;;;16.33;;
64791;SDS011;51226;47.504;19.074;2023-01-29T08:50:31;20.60;;;12.27;;
64791;SDS011;51226;47.504;19.074;2023-01-29T08:53:36;15.88;;;10.77;;
64791;SDS011;51226;47.504;19.074;2023-01-29T08:56:39;16.80;;;10.60;;
64791;SDS011;51226;47.504;19.074;2023-01-29T08:59:42;17.70;;;11.30;;
64791;SDS011;51226;47.504;19.074;2023-01-29T09:02:44;14.93;;;10.03;;
64791;SDS011;51226;47.504;19.074;2023-01-29T09:05:48;14.27;;;10.25;;
64791;SDS011;51226;47.504;19.074;2023-01-29T09:08:50;16.20;;;9.87;;
64791;SDS011;51226;47.504;19.074;2023-01-29T09:11:53;16.35;;;10.75;;
64791;SDS011;51226;47.504;19.074;2023-01-29T09:14:56;14.57;;;10.80;;
64791;SDS011;51226;47.504;19.074;2023-01-29T09:18:01;14.15;;;10.63;;
64791;SDS011;51226;47.504;19.074;2023-01-29T09:21:05;16.12;;;10.35;;
64791;SDS011;51226;47.504;19.074;2023-01-29T09:24:08;14.30;;;9.85;;
64791;SDS011;51226;47.504;19.074;2023-01-29T09:27:11;16.85;;;10.77;;
64791;SDS011;51226;47.504;19.074;2023-01-29T09:30:15;13.88;;;9.88;;
64791;SDS011;51226;47.504;19.074;2023-01-29T09:33:18;16.45;;;11.98;;
64791;SDS011;51226;47.504;19.074;2023-01-29T09:36:22;16.23;;;10.65;;
64791;SDS011;51226;47.504;19.074;2023-01-29T09:39:24;14.48;;;9.50;;
64791;SDS011;51226;47.504;19.074;2023-01-29T09:49:15;14.48;;;9.40;;
64791;SDS011;51226;47.504;19.074;2023-01-29T09:55:52;14.63;;;9.93;;
64791;SDS011;51226;47.504;19.074;2023-01-29T09:59:03;14.30;;;9.43;;
64791;SDS011;51226;47.504;19.074;2023-01-29T10:02:43;13.65;;;9.38;;
64791;SDS011;51226;47.504;19.074;2023-01-29T10:05:58;14.25;;;9.48;;
64791;SDS011;51226;47.504;19.074;2023-01-29T10:26:36;13.52;;;8.63;;
64791;SDS011;51226;47.504;19.074;2023-01-29T10:29:42;13.70;;;9.43;;
64791;SDS011;51226;47.504;19.074;2023-01-29T10:32:48;13.75;;;8.00;;
64791;SDS011;51226;47.504;19.074;2023-01-29T10:35:57;13.98;;;8.70;;
64791;SDS011;51226;47.504;19.074;2023-01-29T10:39:08;16.35;;;8.60;;
64791;SDS011;51226;47.504;19.074;2023-01-29T10:42:25;13.73;;;8.50;;
64791;SDS011;51226;47.504;19.074;2023-01-29T10:45:42;13.82;;;9.10;;
64791;SDS011;51226;47.504;19.074;2023-01-29T11:03:23;10.27;;;8.07;;
64791;SDS011;51226;47.504;19.074;2023-01-29T11:06:34;12.07;;;7.95;;
64791;SDS011;51226;47.504;19.074;2023-01-29T11:09:52;11.90;;;7.45;;
64791;SDS011;51226;47.504;19.074;2023-01-29T11:13:02;11.32;;;8.18;;
64791;SDS011;51226;47.504;19.074;2023-01-29T11:16:06;11.05;;;7.95;;
64791;SDS011;51226;47.504;19.074;2023-01-29T11:19:11;11.12;;;8.25;;
64791;SDS011;51226;47.504;19.074;2023-01-29T11:22:15;12.23;;;8.10;;
64791;SDS011;51226;47.504;19.074;2023-01-29T11:25:22;12.35;;;8.55;;
64791;SDS011;51226;47.504;19.074;2023-01-29T11:31:42;16.00;;;9.75;;
64791;SDS011;51226;47.504;19.074;2023-01-29T11:38:20;12.55;;;9.18;;
64791;SDS011;51226;47.504;19.074;2023-01-29T11:41:25;14.45;;;9.48;;
64791;SDS011;51226;47.504;19.074;2023-01-29T11:47:40;11.95;;;8.82;;
64791;SDS011;51226;47.504;19.074;2023-01-29T11:50:49;12.32;;;8.25;;
64791;SDS011;51226;47.504;19.074;2023-01-29T11:53:54;10.43;;;7.87;;
64791;SDS011;51226;47.504;19.074;2023-01-29T11:57:00;12.10;;;8.30;;
64791;SDS011;51226;47.504;19.074;2023-01-29T12:00:26;13.10;;;8.75;;
64791;SDS011;51226;47.504;19.074;2023-01-29T12:03:34;10.25;;;8.30;;
64791;SDS011;51226;47.504;19.074;2023-01-29T12:06:44;13.27;;;8.95;;
64791;SDS011;51226;47.504;19.074;2023-01-29T12:09:54;12.40;;;8.30;;
64791;SDS011;51226;47.504;19.074;2023-01-29T12:13:08;11.00;;;8.57;;
64791;SDS011;51226;47.504;19.074;2023-01-29T12:19:41;10.23;;;7.85;;
64791;SDS011;51226;47.504;19.074;2023-01-29T12:22:50;9.60;;;7.72;;
64791;SDS011;51226;47.504;19.074;2023-01-29T12:26:01;11.43;;;8.93;;
64791;SDS011;51226;47.504;19.074;2023-01-29T12:29:29;10.32;;;7.15;;
64791;SDS011;51226;47.504;19.074;2023-01-29T12:35:47;13.93;;;8.77;;
64791;SDS011;51226;47.504;19.074;2023-01-29T12:38:55;9.40;;;7.37;;
64791;SDS011;51226;47.504;19.074;2023-01-29T12:42:01;9.43;;;7.32;;
64791;SDS011;51226;47.504;19.074;2023-01-29T12:45:13;12.05;;;7.90;;
64791;SDS011;51226;47.504;19.074;2023-01-29T12:48:23;9.90;;;7.12;;
64791;SDS011;51226;47.504;19.074;2023-01-29T12:51:34;9.95;;;7.85;;
64791;SDS011;51226;47.504;19.074;2023-01-29T12:54:46;11.25;;;8.05;;
64791;SDS011;51226;47.504;19.074;2023-01-29T12:58:07;9.27;;;7.55;;
64791;SDS011;51226;47.504;19.074;2023-01-29T13:01:16;10.55;;;7.72;;
64791;SDS011;51226;47.504;19.074;2023-01-29T13:04:37;9.57;;;6.80;;
64791;SDS011;51226;47.504;19.074;2023-01-29T13:08:00;9.05;;;6.72;;
64791;SDS011;51226;47.504;19.074;2023-01-29T13:11:08;8.88;;;7.28;;
64791;SDS011;51226;47.504;19.074;2023-01-29T13:14:46;8.15;;;6.55;;
64791;SDS011;51226;47.504;19.074;2023-01-29T13:17:57;8.70;;;7.65;;
64791;SDS011;51226;47.504;19.074;2023-01-29T13:21:58;8.38;;;7.18;;
64791;SDS011;51226;47.504;19.074;2023-01-29T13:24:41;8.95;;;7.05;;
64791;SDS011;51226;47.504;19.074;2023-01-29T13:27:51;8.48;;;7.05;;
64791;SDS011;51226;47.504;19.074;2023-01-29T13:37:30;7.50;;;6.80;;
64791;SDS011;51226;47.504;19.074;2023-01-29T13:40:36;7.55;;;6.90;;
64791;SDS011;51226;47.504;19.074;2023-01-29T13:43:40;8.30;;;7.47;;
64791;SDS011;51226;47.504;19.074;2023-01-29T13:50:35;8.57;;;7.28;;
64791;SDS011;51226;47.504;19.074;2023-01-29T13:53:43;7.90;;;7.10;;
64791;SDS011;51226;47.504;19.074;2023-01-29T13:56:56;7.22;;;6.53;;
64791;SDS011;51226;47.504;19.074;2023-01-29T14:00:04;8.05;;;7.25;;
64791;SDS011;51226;47.504;19.074;2023-01-29T14:06:28;9.55;;;8.05;;
64791;SDS011;51226;47.504;19.074;2023-01-29T14:12:45;8.20;;;7.40;;
64791;SDS011;51226;47.504;19.074;2023-01-29T14:18:59;9.65;;;7.62;;
64791;SDS011;51226;47.504;19.074;2023-01-29T14:22:04;8.85;;;7.55;;
64791;SDS011;51226;47.504;19.074;2023-01-29T14:25:20;9.27;;;7.87;;
64791;SDS011;51226;47.504;19.074;2023-01-29T14:28:30;9.32;;;7.87;;
64791;SDS011;51226;47.504;19.074;2023-01-29T14:34:44;10.70;;;8.50;;
64791;SDS011;51226;47.504;19.074;2023-01-29T14:37:51;10.02;;;7.45;;
64791;SDS011;51226;47.504;19.074;2023-01-29T14:41:03;8.75;;;7.60;;
64791;SDS011;51226;47.504;19.074;2023-01-29T14:50:49;9.45;;;7.20;;
64791;SDS011;51226;47.504;19.074;2023-01-29T14:57:04;8.95;;;7.93;;
64791;SDS011;51226;47.504;19.074;2023-01-29T15:00:16;11.15;;;7.95;;
64791;SDS011;51226;47.504;19.074;2023-01-29T15:06:45;8.90;;;7.07;;
64791;SDS011;51226;47.504;19.074;2023-01-29T15:10:03;11.05;;;7.97;;
64791;SDS011;51226;47.504;19.074;2023-01-29T15:13:28;11.18;;;7.97;;
64791;SDS011;51226;47.504;19.074;2023-01-29T15:20:27;11.20;;;7.57;;
64791;SDS011;51226;47.504;19.074;2023-01-29T15:23:34;10.63;;;7.68;;
64791;SDS011;51226;47.504;19.074;2023-01-29T15:26:37;13.48;;;8.50;;
64791;SDS011;51226;47.504;19.074;2023-01-29T15:29:51;11.05;;;8.07;;
64791;SDS011;51226;47.504;19.074;2023-01-29T15:33:06;12.20;;;8.27;;
64791;SDS011;51226;47.504;19.074;2023-01-29T15:36:17;12.35;;;8.32;;
64791;SDS011;51226;47.504;19.074;2023-01-29T15:39:31;10.15;;;8.77;;
64791;SDS011;51226;47.504;19.074;2023-01-29T15:42:45;16.05;;;8.75;;
64791;SDS011;51226;47.504;19.074;2023-01-29T15:45:50;11.50;;;8.48;;
64791;SDS011;51226;47.504;19.074;2023-01-29T15:48:58;11.15;;;8.68;;
64791;SDS011;51226;47.504;19.074;2023-01-29T15:52:12;15.23;;;9.50;;
64791;SDS011;51226;47.504;19.074;2023-01-29T15:55:21;13.90;;;9.25;;
64791;SDS011;51226;47.504;19.074;2023-01-29T15:58:29;13.50;;;9.02;;
64791;SDS011;51226;47.504;19.074;2023-01-29T16:01:36;13.10;;;8.93;;
64791;SDS011;51226;47.504;19.074;2023-01-29T16:04:39;12.93;;;8.98;;
64791;SDS011;51226;47.504;19.074;2023-01-29T16:07:42;15.75;;;9.15;;
64791;SDS011;51226;47.504;19.074;2023-01-29T16:10:47;13.88;;;10.43;;
64791;SDS011;51226;47.504;19.074;2023-01-29T16:13:55;12.73;;;9.93;;
64791;SDS011;51226;47.504;19.074;2023-01-29T16:17:09;11.40;;;9.98;;
64791;SDS011;51226;47.504;19.074;2023-01-29T16:20:30;13.38;;;9.25;;
64791;SDS011;51226;47.504;19.074;2023-01-29T16:23:40;15.15;;;10.15;;
64791;SDS011;51226;47.504;19.074;2023-01-29T16:29:54;17.73;;;10.57;;
64791;SDS011;51226;47.504;19.074;2023-01-29T16:33:04;13.62;;;10.50;;
64791;SDS011;51226;47.504;19.074;2023-01-29T16:36:16;16.95;;;10.73;;
64791;SDS011;51226;47.504;19.074;2023-01-29T16:39:22;15.20;;;10.55;;
64791;SDS011;51226;47.504;19.074;2023-01-29T16:42:27;14.98;;;11.38;;
64791;SDS011;51226;47.504;19.074;2023-01-29T16:45:31;14.05;;;10.38;;
64791;SDS011;51226;47.504;19.074;2023-01-29T16:48:34;15.20;;;9.88;;
64791;SDS011;51226;47.504;19.074;2023-01-29T16:51:37;16.05;;;10.73;;
64791;SDS011;51226;47.504;19.074;2023-01-29T16:54:41;15.57;;;10.90;;
64791;SDS011;51226;47.504;19.074;2023-01-29T16:57:49;15.75;;;10.80;;
64791;SDS011;51226;47.504;19.074;2023-01-29T17:07:16;15.13;;;10.30;;
64791;SDS011;51226;47.504;19.074;2023-01-29T17:10:22;14.85;;;10.95;;
64791;SDS011;51226;47.504;19.074;2023-01-29T17:13:28;16.27;;;11.48;;
64791;SDS011;51226;47.504;19.074;2023-01-29T17:16:52;15.90;;;10.38;;
64791;SDS011;51226;47.504;19.074;2023-01-29T17:19:58;18.15;;;11.80;;
64791;SDS011;51226;47.504;19.074;2023-01-29T17:23:11;15.73;;;10.82;;
64791;SDS011;51226;47.504;19.074;2023-01-29T17:26:13;17.05;;;11.93;;
64791;SDS011;51226;47.504;19.074;2023-01-29T17:29:17;18.33;;;12.43;;
64791;SDS011;51226;47.504;19.074;2023-01-29T17:32:22;15.23;;;12.32;;
64791;SDS011;51226;47.504;19.074;2023-01-29T17:35:46;16.05;;;11.25;;
64791;SDS011;51226;47.504;19.074;2023-01-29T17:38:50;16.87;;;11.80;;
64791;SDS011;51226;47.504;19.074;2023-01-29T17:41:54;17.20;;;12.13;;
64791;SDS011;51226;47.504;19.074;2023-01-29T17:44:59;17.20;;;11.90;;
64791;SDS011;51226;47.504;19.074;2023-01-29T17:48:02;14.80;;;11.63;;
64791;SDS011;51226;47.504;19.074;2023-01-29T17:51:05;20.08;;;11.93;;
64791;SDS011;51226;47.504;19.074;2023-01-29T17:54:12;18.67;;;12.05;;
64791;SDS011;51226;47.504;19.074;2023-01-29T17:57:15;17.80;;;12.63;;
64791;SDS011;51226;47.504;19.074;2023-01-29T18:00:19;16.90;;;12.13;;
64791;SDS011;51226;47.504;19.074;2023-01-29T18:03:25;18.25;;;11.57;;
64791;SDS011;51226;47.504;19.074;2023-01-29T18:06:29;16.15;;;11.88;;
64791;SDS011;51226;47.504;19.074;2023-01-29T18:09:32;18.40;;;12.13;;
64791;SDS011;51226;47.504;19.074;2023-01-29T18:12:35;20.48;;;12.73;;
64791;SDS011;51226;47.504;19.074;2023-01-29T18:15:38;17.12;;;11.88;;
64791;SDS011;51226;47.504;19.074;2023-01-29T18:18:41;17.00;;;13.07;;
64791;SDS011;51226;47.504;19.074;2023-01-29T18:21:44;18.48;;;12.93;;
64791;SDS011;51226;47.504;19.074;2023-01-29T18:24:48;17.15;;;13.02;;
64791;SDS011;51226;47.504;19.074;2023-01-29T18:27:50;17.10;;;12.32;;
64791;SDS011;51226;47.504;19.074;2023-01-29T18:30:53;15.50;;;12.48;;
64791;SDS011;51226;47.504;19.074;2023-01-29T18:33:56;21.50;;;12.80;;
64791;SDS011;51226;47.504;19.074;2023-01-29T18:36:59;14.85;;;11.90;;
64791;SDS011;51226;47.504;19.074;2023-01-29T18:40:02;18.62;;;12.95;;
64791;SDS011;51226;47.504;19.074;2023-01-29T18:43:06;15.07;;;11.55;;
64791;SDS011;51226;47.504;19.074;2023-01-29T18:46:09;18.12;;;12.65;;
64791;SDS011;51226;47.504;19.074;2023-01-29T18:49:12;18.37;;;12.15;;
64791;SDS011;51226;47.504;19.074;2023-01-29T18:52:16;16.35;;;11.55;;
64791;SDS011;51226;47.504;19.074;2023-01-29T18:55:22;15.95;;;11.57;;
64791;SDS011;51226;47.504;19.074;2023-01-29T18:58:25;15.07;;;11.15;;
64791;SDS011;51226;47.504;19.074;2023-01-29T19:01:38;18.37;;;13.02;;
64791;SDS011;51226;47.504;19.074;2023-01-29T19:04:41;15.70;;;11.20;;
64791;SDS011;51226;47.504;19.074;2023-01-29T19:07:44;18.50;;;11.77;;
64791;SDS011;51226;47.504;19.074;2023-01-29T19:10:47;15.32;;;12.02;;
64791;SDS011;51226;47.504;19.074;2023-01-29T19:13:50;16.27;;;10.43;;
64791;SDS011;51226;47.504;19.074;2023-01-29T19:16:53;16.05;;;11.38;;
64791;SDS011;51226;47.504;19.074;2023-01-29T19:19:57;15.63;;;10.95;;
64791;SDS011;51226;47.504;19.074;2023-01-29T19:23:03;14.38;;;11.52;;
64791;SDS011;51226;47.504;19.074;2023-01-29T19:26:06;16.62;;;10.35;;
64791;SDS011;51226;47.504;19.074;2023-01-29T19:29:15;20.80;;;13.85;;
64791;SDS011;51226;47.504;19.074;2023-01-29T19:32:19;28.52;;;17.08;;
64791;SDS011;51226;47.504;19.074;2023-01-29T19:35:22;16.95;;;11.98;;
64791;SDS011;51226;47.504;19.074;2023-01-29T19:38:25;15.95;;;12.00;;
64791;SDS011;51226;47.504;19.074;2023-01-29T19:41:29;14.75;;;11.10;;
64791;SDS011;51226;47.504;19.074;2023-01-29T19:47:38;16.90;;;11.80;;
64791;SDS011;51226;47.504;19.074;2023-01-29T19:50:55;17.95;;;11.85;;
64791;SDS011;51226;47.504;19.074;2023-01-29T19:53:59;18.23;;;12.23;;
64791;SDS011;51226;47.504;19.074;2023-01-29T19:57:03;20.40;;;13.80;;
64791;SDS011;51226;47.504;19.074;2023-01-29T20:00:08;18.12;;;13.10;;
64791;SDS011;51226;47.504;19.074;2023-01-29T20:03:17;16.00;;;11.45;;
64791;SDS011;51226;47.504;19.074;2023-01-29T20:06:24;16.25;;;11.77;;
64791;SDS011;51226;47.504;19.074;2023-01-29T20:09:30;18.17;;;12.70;;
64791;SDS011;51226;47.504;19.074;2023-01-29T20:12:33;21.52;;;14.48;;
64791;SDS011;51226;47.504;19.074;2023-01-29T20:15:36;17.95;;;12.20;;
64791;SDS011;51226;47.504;19.074;2023-01-29T20:18:39;17.57;;;12.23;;
64791;SDS011;51226;47.504;19.074;2023-01-29T20:21:44;15.95;;;11.68;;
64791;SDS011;51226;47.504;19.074;2023-01-29T20:24:47;14.32;;;11.77;;
64791;SDS011;51226;47.504;19.074;2023-01-29T20:27:51;14.95;;;11.48;;
64791;SDS011;51226;47.504;19.074;2023-01-29T20:30:53;16.40;;;11.47;;
64791;SDS011;51226;47.504;19.074;2023-01-29T20:33:58;14.75;;;11.80;;
64791;SDS011;51226;47.504;19.074;2023-01-29T20:37:01;17.77;;;12.50;;
64791;SDS011;51226;47.504;19.074;2023-01-29T20:40:05;18.42;;;12.77;;
64791;SDS011;51226;47.504;19.074;2023-01-29T20:43:08;18.65;;;13.02;;
64791;SDS011;51226;47.504;19.074;2023-01-29T20:46:11;14.60;;;11.93;;
64791;SDS011;51226;47.504;19.074;2023-01-29T20:49:14;19.95;;;11.73;;
64791;SDS011;51226;47.504;19.074;2023-01-29T20:52:19;15.55;;;12.88;;